• Join FlightAware (Why Join?)
  • Login
  • US Flag 
11:43AM EST


 

Airport Tracker/Info


-or-


 

Live Flight TrackerFlight Track Log ✈ CTL13 ✈ 23-Apr-2013 ✈ KEYE - KMDW

Flight Track Log - Related Links

Times and Time Zones

All times are in EDT time to prevent confusion due to time zone crossing. See the CTL13 flight status page for this flight to view local times or setup timezone preferences in your user account.

Time Position Orientation Groundspeed Altitude Reporting Facility
EDT Latitude Longitude Course Direction KTS MPH feet Rate Location/Type
08:34PM 39.9833 -86.3333 329° Northwest 190 219 2,900  Level Indianapolis TRACON
08:35PM 40.0086 -86.3494 334° Northwest 184 212 3,100 420 Climbing Chicago Center
08:36PM 40.0456 -86.3783 329° Northwest 183 211 3,600 420 Climbing Indianapolis Center
08:37PM 40.0883 -86.4128 328° Northwest 182 209 4,000 180 Climbing Indianapolis Center
08:38PM 40.1322 -86.4489 328° Northwest 183 211 4,000  Level Indianapolis Center
08:39PM 40.1803 -86.4917 326° Northwest 181 208 4,000  Level Indianapolis Center
08:40PM 40.1544 -86.5441 329° Northwest  Level FlightAware Approximate
08:40PM 40.2244 -86.5247 330° Northwest 181 208 4,000  Level Indianapolis Center
08:40PM 40.2358 -86.5378 319° Northwest 181 208 4,000  Level Chicago Center
08:41PM 40.2681 -86.5581 334° Northwest 181 208 4,000  Level Chicago Center
08:42PM 40.3231 -86.6031 328° Northwest 180 207 4,000  Level Chicago Center
08:43PM 40.3617 -86.6297 332° Northwest 179 206 4,000  Level Chicago Center
08:44PM 40.4106 -86.6658 331° Northwest 179 206 4,000  Level Chicago Center
08:45PM 40.4492 -86.6936 331° Northwest 178 205 4,100  Climbing Chicago Center
08:46PM 40.4978 -86.7367 326° Northwest 177 204 4,000 -60 Descending Chicago Center
08:47PM 40.5322 -86.7603 332° Northwest 173 199 4,000  Level Chicago Center
08:48PM 40.5722 -86.7911 330° Northwest 170 196 4,000 120 Level Chicago Center
08:49PM 40.6211 -86.8303 329° Northwest 175 201 4,300  Climbing Chicago Center
08:50PM 40.6569 -86.8600 328° Northwest 156 180 4,000 -180 Descending Chicago Center
08:51PM 40.6947 -86.8928 327° Northwest 160 184 4,000  Level Chicago Center
08:52PM 40.7394 -86.9244 332° Northwest 166 191 4,000  Level Chicago Center
08:53PM 40.7781 -86.9522 331° Northwest 159 183 4,100  Climbing Chicago Center
08:54PM 40.8058 -86.9825 320° Northwest 136 157 4,000 -60 Descending Chicago Center
08:55PM 40.8419 -87.0094 331° Northwest 141 162 4,000  Level Chicago Center
08:56PM 40.8814 -87.0394 330° Northwest 153 176 4,000 -60 Level Chicago Center
08:57PM 40.9217 -87.0714 329° Northwest 161 185 3,900  Descending Chicago Center
08:58PM 40.9686 -87.1094 329° Northwest 165 190 4,000 60 Climbing Chicago Center
09:00PM 41.0031 -87.1492 319° Northwest 166 191 4,100  Climbing Chicago Center
09:01PM 41.0350 -87.1917 315° West 165 190 4,000 -60 Descending Chicago Center
09:02PM 41.0661 -87.2344 314° West 164 189 4,000  Level Chicago Center
09:03PM 41.1008 -87.2725 320° Northwest 164 189 4,000  Level Chicago Center
09:04PM 41.1508 -87.3064 333° Northwest 167 192 4,000  Level Chicago Center
09:05PM 41.1906 -87.3358 331° Northwest 166 191 4,000  Level Chicago Center
09:06PM 41.2306 -87.3656 331° Northwest 166 191 4,000  Level Chicago Center
09:07PM 41.2708 -87.3839 341° North 159 183 4,000  Level Chicago Center
09:08PM 41.3147 -87.3953 349° North 158 182 4,000 -60 Level Chicago Center
09:09PM 41.3644 -87.4122 346° North 157 181 3,900  Descending Chicago Center
09:10PM 41.4064 -87.4264 346° North 156 180 4,000  Climbing Chicago Center
09:11PM 41.4467 -87.4250 North 157 181 4,000 -60 Level Chicago Center
09:12PM 41.4844 -87.4011 25° Northeast 154 177 3,900 -60 Descending Chicago Center
09:13PM 41.5225 -87.4150 345° North 153 176 3,900  Level Chicago Center
09:15PM 41.5903 -87.4783 325° Northwest 141 162 4,000 -180 Climbing Chicago Center
09:16PM 41.6167 -87.5158 313° West 139 160 3,400 -300 Descending Chicago Center
09:17PM 41.6414 -87.5511 313° West 136 157 3,400 -180 Level Chicago Center
09:18PM 41.6678 -87.5900 312° West 137 158 3,100 -420 Descending Chicago Center
09:19PM 41.7000 -87.6333 315° West 144 166 2,700 -480 Descending Chicago TRACON
09:20PM 41.7167 -87.6500 323° Northwest 117 135 2,300 -600 Descending Chicago TRACON
09:21PM 41.7500 -87.7000 312° West 122 140 1,600 -600 Descending Chicago TRACON
09:22PM 41.7667 -87.7333 304° West 123 142 1,200 -480 Descending Chicago TRACON
09:24PM 41.7833 -87.7500 334° Northwest  Level FlightAware Approximate
09:31PM 41.7860 -87.7524 334° Northwest  Level Estimated